sensor_id;sensor_type;location;lat;lon;timestamp;pressure;altitude;pressure_sealevel;temperature;humidity
62800;BME280;48842;51.046;13.796;2024-02-21T00:00:52;101065.09;;;11.69;51.59
62800;BME280;48842;51.046;13.796;2024-02-21T00:03:18;101053.75;;;11.69;51.80
62800;BME280;48842;51.046;13.796;2024-02-21T00:05:44;101049.34;;;11.68;51.83
62800;BME280;48842;51.046;13.796;2024-02-21T00:08:09;101048.47;;;11.67;51.92
62800;BME280;48842;51.046;13.796;2024-02-21T00:10:35;101041.47;;;11.66;51.32
62800;BME280;48842;51.046;13.796;2024-02-21T00:13:01;101037.97;;;11.67;51.66
62800;BME280;48842;51.046;13.796;2024-02-21T00:15:26;101039.75;;;11.68;51.98
62800;BME280;48842;51.046;13.796;2024-02-21T00:17:52;101035.34;;;11.67;51.34
62800;BME280;48842;51.046;13.796;2024-02-21T00:20:17;101028.34;;;11.66;51.64
62800;BME280;48842;51.046;13.796;2024-02-21T00:22:43;101031.88;;;11.67;51.97
62800;BME280;48842;51.046;13.796;2024-02-21T00:25:09;101024.84;;;11.67;51.90
62800;BME280;48842;51.046;13.796;2024-02-21T00:27:34;101024.00;;;11.68;51.92
62800;BME280;48842;51.046;13.796;2024-02-21T00:29:59;101013.53;;;11.70;51.94
62800;BME280;48842;51.046;13.796;2024-02-21T00:32:25;101027.53;;;11.72;51.42
62800;BME280;48842;51.046;13.796;2024-02-21T00:34:50;101010.03;;;11.71;51.97
62800;BME280;48842;51.046;13.796;2024-02-21T00:37:15;101009.13;;;11.70;51.30
62800;BME280;48842;51.046;13.796;2024-02-21T00:39:40;101006.53;;;11.72;51.98
62800;BME280;48842;51.046;13.796;2024-02-21T00:42:07;101003.94;;;11.77;51.61
62800;BME280;48842;51.046;13.796;2024-02-21T00:44:32;101005.72;;;11.78;51.42
62800;BME280;48842;51.046;13.796;2024-02-21T00:46:58;101002.22;;;11.76;51.30
62800;BME280;48842;51.046;13.796;2024-02-21T00:49:23;100996.97;;;11.76;51.40
62800;BME280;48842;51.046;13.796;2024-02-21T00:51:48;101003.94;;;11.77;51.39
62800;BME280;48842;51.046;13.796;2024-02-21T00:54:13;100998.69;;;11.77;51.08
62800;BME280;48842;51.046;13.796;2024-02-21T00:56:39;100990.84;;;11.78;51.04
62800;BME280;48842;51.046;13.796;2024-02-21T00:59:04;100989.09;;;11.77;51.66
62800;BME280;48842;51.046;13.796;2024-02-21T01:01:29;100989.09;;;11.77;51.36
62800;BME280;48842;51.046;13.796;2024-02-21T01:03:54;100983.84;;;11.77;51.02
62800;BME280;48842;51.046;13.796;2024-02-21T01:06:20;100982.09;;;11.78;51.31
62800;BME280;48842;51.046;13.796;2024-02-21T01:08:47;100977.66;;;11.74;51.27
62800;BME280;48842;51.046;13.796;2024-02-21T01:11:13;100982.91;;;11.74;51.46
62800;BME280;48842;51.046;13.796;2024-02-21T01:13:38;100972.44;;;11.75;51.58
62800;BME280;48842;51.046;13.796;2024-02-21T01:16:03;100974.19;;;11.75;51.27
62800;BME280;48842;51.046;13.796;2024-02-21T01:18:29;100969.81;;;11.74;51.04
62800;BME280;48842;51.046;13.796;2024-02-21T01:20:54;100968.06;;;11.74;51.52
62800;BME280;48842;51.046;13.796;2024-02-21T01:23:20;100962.84;;;11.76;51.01
62800;BME280;48842;51.046;13.796;2024-02-21T01:25:45;100964.56;;;11.75;51.02
62800;BME280;48842;51.046;13.796;2024-02-21T01:28:10;100955.84;;;11.76;50.97
62800;BME280;48842;51.046;13.796;2024-02-21T01:30:35;100953.19;;;11.75;51.13
62800;BME280;48842;51.046;13.796;2024-02-21T01:33:00;100941.81;;;11.74;51.37
62800;BME280;48842;51.046;13.796;2024-02-21T01:35:26;100940.03;;;11.68;50.91
62800;BME280;48842;51.046;13.796;2024-02-21T01:37:51;100939.13;;;11.68;51.47
62800;BME280;48842;51.046;13.796;2024-02-21T01:40:16;100932.16;;;11.68;51.55
62800;BME280;48842;51.046;13.796;2024-02-21T01:42:42;100928.63;;;11.68;51.51
62800;BME280;48842;51.046;13.796;2024-02-21T01:45:07;100914.66;;;11.70;51.24
62800;BME280;48842;51.046;13.796;2024-02-21T01:47:33;100917.28;;;11.69;51.40
62800;BME280;48842;51.046;13.796;2024-02-21T01:49:58;100910.25;;;11.68;51.52
62800;BME280;48842;51.046;13.796;2024-02-21T01:52:24;100897.13;;;11.66;51.26
62800;BME280;48842;51.046;13.796;2024-02-21T01:54:50;100900.63;;;11.65;51.23
62800;BME280;48842;51.046;13.796;2024-02-21T01:57:15;100892.75;;;11.64;51.53
62800;BME280;48842;51.046;13.796;2024-02-21T01:59:40;100899.72;;;11.63;51.21
62800;BME280;48842;51.046;13.796;2024-02-21T02:02:06;100894.47;;;11.62;51.66
62800;BME280;48842;51.046;13.796;2024-02-21T02:04:31;100893.59;;;11.61;51.66
62800;BME280;48842;51.046;13.796;2024-02-21T02:06:57;100890.06;;;11.59;51.52
62800;BME280;48842;51.046;13.796;2024-02-21T02:09:25;100899.69;;;11.59;51.30
62800;BME280;48842;51.046;13.796;2024-02-21T02:11:50;100911.84;;;11.50;51.36
62800;BME280;48842;51.046;13.796;2024-02-21T02:14:16;100887.41;;;11.53;51.46
62800;BME280;48842;51.046;13.796;2024-02-21T02:16:41;100886.53;;;11.52;51.34
62800;BME280;48842;51.046;13.796;2024-02-21T02:19:06;100889.16;;;11.54;51.63
62800;BME280;48842;51.046;13.796;2024-02-21T02:21:39;100894.44;;;11.59;51.52
62800;BME280;48842;51.046;13.796;2024-02-21T02:24:07;100889.22;;;11.62;51.56
62800;BME280;48842;51.046;13.796;2024-02-21T02:26:32;100893.63;;;11.64;51.18
62800;BME280;48842;51.046;13.796;2024-02-21T02:28:58;100891.88;;;11.66;51.58
62800;BME280;48842;51.046;13.796;2024-02-21T02:31:23;100887.53;;;11.68;51.54
62800;BME280;48842;51.046;13.796;2024-02-21T02:33:48;100890.16;;;11.68;51.23
62800;BME280;48842;51.046;13.796;2024-02-21T02:36:14;100884.94;;;11.70;51.26
62800;BME280;48842;51.046;13.796;2024-02-21T02:38:39;100882.31;;;11.72;51.84
62800;BME280;48842;51.046;13.796;2024-02-21T02:41:05;100881.44;;;11.73;51.46
62800;BME280;48842;51.046;13.796;2024-02-21T02:43:30;100874.44;;;11.73;51.64
62800;BME280;48842;51.046;13.796;2024-02-21T02:45:56;100888.44;;;11.74;52.06
62800;BME280;48842;51.046;13.796;2024-02-21T02:48:21;100882.31;;;11.73;51.53
62800;BME280;48842;51.046;13.796;2024-02-21T02:50:47;100872.69;;;11.72;51.17
62800;BME280;48842;51.046;13.796;2024-02-21T02:53:12;100874.47;;;11.75;51.85
62800;BME280;48842;51.046;13.796;2024-02-21T02:55:37;100872.69;;;11.72;51.67
62800;BME280;48842;51.046;13.796;2024-02-21T02:58:03;100867.44;;;11.72;51.40
62800;BME280;48842;51.046;13.796;2024-02-21T03:00:28;100864.81;;;11.72;51.46
62800;BME280;48842;51.046;13.796;2024-02-21T03:02:53;100860.47;;;11.73;51.81
62800;BME280;48842;51.046;13.796;2024-02-21T03:05:20;100865.72;;;11.73;51.89
62800;BME280;48842;51.046;13.796;2024-02-21T03:07:47;100862.19;;;11.72;51.64
62800;BME280;48842;51.046;13.796;2024-02-21T03:10:14;100856.06;;;11.72;51.38
62800;BME280;48842;51.046;13.796;2024-02-21T03:12:41;100848.19;;;11.72;51.61
62800;BME280;48842;51.046;13.796;2024-02-21T03:15:07;100850.81;;;11.72;51.54
62800;BME280;48842;51.046;13.796;2024-02-21T03:17:33;100849.97;;;11.73;51.79
62800;BME280;48842;51.046;13.796;2024-02-21T03:20:04;100850.81;;;11.73;51.90
62800;BME280;48842;51.046;13.796;2024-02-21T03:22:31;100855.22;;;11.74;51.27
62800;BME280;48842;51.046;13.796;2024-02-21T03:24:56;100849.06;;;11.74;51.95
62800;BME280;48842;51.046;13.796;2024-02-21T03:27:22;100850.84;;;11.75;51.77
62800;BME280;48842;51.046;13.796;2024-02-21T03:29:47;100849.06;;;11.74;51.92
62800;BME280;48842;51.046;13.796;2024-02-21T03:32:12;100850.81;;;11.73;51.55
62800;BME280;48842;51.046;13.796;2024-02-21T03:34:38;100853.47;;;11.75;51.61
62800;BME280;48842;51.046;13.796;2024-02-21T03:37:03;100855.22;;;11.76;51.34
62800;BME280;48842;51.046;13.796;2024-02-21T03:39:31;100858.72;;;11.76;51.34
62800;BME280;48842;51.046;13.796;2024-02-21T03:41:57;100844.72;;;11.73;51.22
62800;BME280;48842;51.046;13.796;2024-02-21T03:44:23;100847.31;;;11.71;50.96
62800;BME280;48842;51.046;13.796;2024-02-21T03:46:48;100844.66;;;11.69;51.46
62800;BME280;48842;51.046;13.796;2024-02-21T03:49:15;100845.56;;;11.68;51.58
62800;BME280;48842;51.046;13.796;2024-02-21T03:51:40;100839.41;;;11.69;51.03
62800;BME280;48842;51.046;13.796;2024-02-21T03:54:05;100839.47;;;11.73;51.30
62800;BME280;48842;51.046;13.796;2024-02-21T03:56:30;100835.09;;;11.75;51.12
62800;BME280;48842;51.046;13.796;2024-02-21T03:58:55;100840.34;;;11.73;51.13
62800;BME280;48842;51.046;13.796;2024-02-21T04:01:21;100833.31;;;11.74;51.53
62800;BME280;48842;51.046;13.796;2024-02-21T04:03:46;100827.22;;;11.75;51.07
62800;BME280;48842;51.046;13.796;2024-02-21T04:06:11;100826.34;;;11.74;51.35
62800;BME280;48842;51.046;13.796;2024-02-21T04:08:39;100833.34;;;11.75;51.31
62800;BME280;48842;51.046;13.796;2024-02-21T04:11:05;100828.97;;;11.76;50.97
62800;BME280;48842;51.046;13.796;2024-02-21T04:13:30;100825.47;;;11.77;51.22
62800;BME280;48842;51.046;13.796;2024-02-21T04:15:55;100821.97;;;11.78;51.01
62800;BME280;48842;51.046;13.796;2024-02-21T04:18:22;100829.00;;;11.79;51.62
62800;BME280;48842;51.046;13.796;2024-02-21T04:20:47;100820.25;;;11.80;51.49
62800;BME280;48842;51.046;13.796;2024-02-21T04:23:12;100822.91;;;11.81;51.29
62800;BME280;48842;51.046;13.796;2024-02-21T04:25:37;100820.28;;;11.81;51.23
62800;BME280;48842;51.046;13.796;2024-02-21T04:28:03;100813.28;;;11.82;51.49
62800;BME280;48842;51.046;13.796;2024-02-21T04:30:28;100821.16;;;11.83;51.51
62800;BME280;48842;51.046;13.796;2024-02-21T04:32:53;100826.41;;;11.83;51.13
62800;BME280;48842;51.046;13.796;2024-02-21T04:35:19;100818.53;;;11.83;51.21
62800;BME280;48842;51.046;13.796;2024-02-21T04:37:44;100815.03;;;11.83;51.56
62800;BME280;48842;51.046;13.796;2024-02-21T04:40:10;100818.50;;;11.82;51.04
62800;BME280;48842;51.046;13.796;2024-02-21T04:42:35;100810.63;;;11.80;51.75
62800;BME280;48842;51.046;13.796;2024-02-21T04:45:00;100816.75;;;11.79;51.25
62800;BME280;48842;51.046;13.796;2024-02-21T04:47:26;100817.63;;;11.80;51.32
62800;BME280;48842;51.046;13.796;2024-02-21T04:49:51;100813.28;;;11.82;51.22
62800;BME280;48842;51.046;13.796;2024-02-21T04:52:17;100815.00;;;11.80;51.10
62800;BME280;48842;51.046;13.796;2024-02-21T04:54:42;100822.84;;;11.78;50.92
62800;BME280;48842;51.046;13.796;2024-02-21T04:57:07;100811.47;;;11.75;51.05
62800;BME280;48842;51.046;13.796;2024-02-21T04:59:35;100813.22;;;11.73;51.06
62800;BME280;48842;51.046;13.796;2024-02-21T05:02:01;100807.97;;;11.73;51.03
62800;BME280;48842;51.046;13.796;2024-02-21T05:04:26;100798.34;;;11.72;51.29
62800;BME280;48842;51.046;13.796;2024-02-21T05:06:51;100794.84;;;11.74;51.09
62800;BME280;48842;51.046;13.796;2024-02-21T05:09:16;100794.88;;;11.77;51.17
62800;BME280;48842;51.046;13.796;2024-02-21T05:11:42;100789.63;;;11.79;50.85
62800;BME280;48842;51.046;13.796;2024-02-21T05:14:07;100789.63;;;11.80;50.96
62800;BME280;48842;51.046;13.796;2024-02-21T05:16:32;100786.16;;;11.81;51.41
62800;BME280;48842;51.046;13.796;2024-02-21T05:18:57;100786.16;;;11.83;51.10
62800;BME280;48842;51.046;13.796;2024-02-21T05:21:23;100793.16;;;11.84;51.30
62800;BME280;48842;51.046;13.796;2024-02-21T05:23:49;100794.03;;;11.83;50.68
62800;BME280;48842;51.046;13.796;2024-02-21T05:26:24;100792.28;;;11.83;51.08
62800;BME280;48842;51.046;13.796;2024-02-21T05:28:49;100795.75;;;11.84;51.21
62800;BME280;48842;51.046;13.796;2024-02-21T05:31:15;100794.03;;;11.83;51.01
62800;BME280;48842;51.046;13.796;2024-02-21T05:33:41;100791.41;;;11.81;50.94
62800;BME280;48842;51.046;13.796;2024-02-21T05:36:07;100784.38;;;11.79;51.10
62800;BME280;48842;51.046;13.796;2024-02-21T05:38:33;100780.84;;;11.78;51.25
62800;BME280;48842;51.046;13.796;2024-02-21T05:40:58;100784.38;;;11.79;51.01
62800;BME280;48842;51.046;13.796;2024-02-21T05:43:23;100783.53;;;11.80;51.66
62800;BME280;48842;51.046;13.796;2024-02-21T05:45:49;100781.78;;;11.82;51.16
62800;BME280;48842;51.046;13.796;2024-02-21T05:48:14;100780.91;;;11.83;51.38
62800;BME280;48842;51.046;13.796;2024-02-21T05:50:39;100773.91;;;11.85;51.78
62800;BME280;48842;51.046;13.796;2024-02-21T05:53:05;100770.44;;;11.86;51.83
62800;BME280;48842;51.046;13.796;2024-02-21T05:55:31;100769.53;;;11.87;51.37
62800;BME280;48842;51.046;13.796;2024-02-21T05:57:56;100765.19;;;11.91;51.74
62800;BME280;48842;51.046;13.796;2024-02-21T06:00:22;100763.44;;;11.91;52.01
62800;BME280;48842;51.046;13.796;2024-02-21T06:02:47;100759.94;;;11.91;51.54
62800;BME280;48842;51.046;13.796;2024-02-21T06:05:12;100757.31;;;11.87;51.24
62800;BME280;48842;51.046;13.796;2024-02-21T06:07:38;100753.78;;;11.87;51.71
62800;BME280;48842;51.046;13.796;2024-02-21T06:10:03;100764.28;;;11.87;51.72
62800;BME280;48842;51.046;13.796;2024-02-21T06:12:29;100749.44;;;11.86;51.74
62800;BME280;48842;51.046;13.796;2024-02-21T06:14:54;100749.41;;;11.84;51.88
62800;BME280;48842;51.046;13.796;2024-02-21T06:17:19;100746.78;;;11.84;51.89
62800;BME280;48842;51.046;13.796;2024-02-21T06:19:44;100745.03;;;11.85;52.07
62800;BME280;48842;51.046;13.796;2024-02-21T06:22:10;100740.63;;;11.82;51.96
62800;BME280;48842;51.046;13.796;2024-02-21T06:24:35;100732.75;;;11.81;51.68
62800;BME280;48842;51.046;13.796;2024-02-21T06:27:02;100739.78;;;11.82;52.24
62800;BME280;48842;51.046;13.796;2024-02-21T06:29:27;100724.03;;;11.82;51.91
62800;BME280;48842;51.046;13.796;2024-02-21T06:31:52;100730.16;;;11.84;52.11
62800;BME280;48842;51.046;13.796;2024-02-21T06:34:18;100725.78;;;11.83;52.37
62800;BME280;48842;51.046;13.796;2024-02-21T06:36:44;100726.66;;;11.86;52.19
62800;BME280;48842;51.046;13.796;2024-02-21T06:39:10;100717.03;;;11.87;52.11
62800;BME280;48842;51.046;13.796;2024-02-21T06:41:36;100725.81;;;11.87;52.06
62800;BME280;48842;51.046;13.796;2024-02-21T06:44:02;100722.28;;;11.87;52.03
62800;BME280;48842;51.046;13.796;2024-02-21T06:46:29;100711.78;;;11.87;52.10
62800;BME280;48842;51.046;13.796;2024-02-21T06:48:54;100724.03;;;11.88;52.56
62800;BME280;48842;51.046;13.796;2024-02-21T06:51:21;100718.78;;;11.88;52.42
62800;BME280;48842;51.046;13.796;2024-02-21T06:53:47;100719.69;;;11.88;52.24
62800;BME280;48842;51.046;13.796;2024-02-21T06:56:12;100727.56;;;11.90;52.12
62800;BME280;48842;51.046;13.796;2024-02-21T06:58:37;100718.81;;;11.91;52.23
62800;BME280;48842;51.046;13.796;2024-02-21T07:01:03;100728.50;;;11.94;52.24
62800;BME280;48842;51.046;13.796;2024-02-21T07:03:28;100737.22;;;11.96;52.46
62800;BME280;48842;51.046;13.796;2024-02-21T07:05:53;100736.38;;;11.97;51.87
62800;BME280;48842;51.046;13.796;2024-02-21T07:08:19;100739.00;;;11.97;52.25
62800;BME280;48842;51.046;13.796;2024-02-21T07:10:44;100725.88;;;11.98;52.11
62800;BME280;48842;51.046;13.796;2024-02-21T07:13:09;100728.50;;;12.03;51.90
62800;BME280;48842;51.046;13.796;2024-02-21T07:15:34;100732.06;;;12.07;52.11
62800;BME280;48842;51.046;13.796;2024-02-21T07:18:01;100725.94;;;12.08;52.05
62800;BME280;48842;51.046;13.796;2024-02-21T07:20:26;100729.44;;;12.08;52.54
62800;BME280;48842;51.046;13.796;2024-02-21T07:22:52;100731.19;;;12.09;52.47
62800;BME280;48842;51.046;13.796;2024-02-21T07:25:17;100730.28;;;12.07;51.79
62800;BME280;48842;51.046;13.796;2024-02-21T07:27:43;100731.16;;;12.04;51.59
62800;BME280;48842;51.046;13.796;2024-02-21T07:30:09;100735.53;;;12.05;51.74
62800;BME280;48842;51.046;13.796;2024-02-21T07:32:34;100733.78;;;12.06;52.20
62800;BME280;48842;51.046;13.796;2024-02-21T07:35:00;100743.41;;;12.07;52.00
62800;BME280;48842;51.046;13.796;2024-02-21T07:37:25;100744.34;;;12.12;52.23
62800;BME280;48842;51.046;13.796;2024-02-21T07:39:50;100740.84;;;12.19;51.64
62800;BME280;48842;51.046;13.796;2024-02-21T07:42:16;100741.75;;;12.29;51.87
62800;BME280;48842;51.046;13.796;2024-02-21T07:44:41;100743.53;;;12.38;51.79
62800;BME280;48842;51.046;13.796;2024-02-21T07:47:06;100730.41;;;12.38;51.74
62800;BME280;48842;51.046;13.796;2024-02-21T07:49:32;100726.91;;;12.37;51.86
62800;BME280;48842;51.046;13.796;2024-02-21T07:51:57;100715.53;;;12.38;51.46
62800;BME280;48842;51.046;13.796;2024-02-21T07:54:22;100724.28;;;12.44;51.87
62800;BME280;48842;51.046;13.796;2024-02-21T07:56:48;100715.53;;;12.49;51.63
62800;BME280;48842;51.046;13.796;2024-02-21T07:59:13;100719.94;;;12.53;51.75
62800;BME280;48842;51.046;13.796;2024-02-21T08:01:39;100712.91;;;12.57;51.26
62800;BME280;48842;51.046;13.796;2024-02-21T08:04:04;100710.28;;;12.54;51.09
62800;BME280;48842;51.046;13.796;2024-02-21T08:06:29;100713.81;;;12.53;51.13
62800;BME280;48842;51.046;13.796;2024-02-21T08:08:55;100706.78;;;12.52;51.41
62800;BME280;48842;51.046;13.796;2024-02-21T08:11:22;100720.78;;;12.48;51.04
62800;BME280;48842;51.046;13.796;2024-02-21T08:13:47;100708.50;;;12.40;51.31
62800;BME280;48842;51.046;13.796;2024-02-21T08:16:12;100719.88;;;12.38;50.84
62800;BME280;48842;51.046;13.796;2024-02-21T08:18:37;100715.53;;;12.42;51.54
62800;BME280;48842;51.046;13.796;2024-02-21T08:21:04;100706.78;;;12.52;50.91
62800;BME280;48842;51.046;13.796;2024-02-21T08:23:29;100711.19;;;12.65;51.09
62800;BME280;48842;51.046;13.796;2024-02-21T08:25:55;100715.59;;;12.79;51.02
62800;BME280;48842;51.046;13.796;2024-02-21T08:28:20;100715.59;;;12.82;50.06
62800;BME280;48842;51.046;13.796;2024-02-21T08:30:45;100717.34;;;12.73;50.32
62800;BME280;48842;51.046;13.796;2024-02-21T08:33:14;100713.81;;;12.68;50.33
62800;BME280;48842;51.046;13.796;2024-02-21T08:35:39;100714.72;;;12.69;50.78
62800;BME280;48842;51.046;13.796;2024-02-21T08:38:05;100705.94;;;12.73;50.41
62800;BME280;48842;51.046;13.796;2024-02-21T08:40:30;100698.06;;;12.84;50.61
62800;BME280;48842;51.046;13.796;2024-02-21T08:42:55;100707.72;;;12.91;50.38
62800;BME280;48842;51.046;13.796;2024-02-21T08:45:20;100702.47;;;12.88;50.21
62800;BME280;48842;51.046;13.796;2024-02-21T08:47:46;100698.94;;;12.81;49.82
62800;BME280;48842;51.046;13.796;2024-02-21T08:50:11;100705.94;;;12.74;50.25
62800;BME280;48842;51.046;13.796;2024-02-21T08:52:36;100707.69;;;12.66;49.87
62800;BME280;48842;51.046;13.796;2024-02-21T08:55:02;100709.44;;;12.61;50.28
62800;BME280;48842;51.046;13.796;2024-02-21T08:57:27;100696.28;;;12.55;50.46
62800;BME280;48842;51.046;13.796;2024-02-21T08:59:52;100706.78;;;12.47;50.51
62800;BME280;48842;51.046;13.796;2024-02-21T09:02:18;100692.75;;;12.47;50.45
62800;BME280;48842;51.046;13.796;2024-02-21T09:04:43;100691.88;;;12.49;50.46
62800;BME280;48842;51.046;13.796;2024-02-21T09:07:11;100687.53;;;12.56;50.80
62800;BME280;48842;51.046;13.796;2024-02-21T09:09:37;100698.91;;;12.66;50.65
62800;BME280;48842;51.046;13.796;2024-02-21T09:12:05;100704.16;;;12.58;50.04
62800;BME280;48842;51.046;13.796;2024-02-21T09:14:35;100698.06;;;12.59;49.79
62800;BME280;48842;51.046;13.796;2024-02-21T09:17:01;100700.63;;;12.50;50.06
62800;BME280;48842;51.046;13.796;2024-02-21T09:19:26;100694.50;;;12.42;50.33
62800;BME280;48842;51.046;13.796;2024-02-21T09:21:51;100693.59;;;12.35;50.63
62800;BME280;48842;51.046;13.796;2024-02-21T09:24:17;100684.00;;;12.38;50.84
62800;BME280;48842;51.046;13.796;2024-02-21T09:26:42;100688.41;;;12.44;50.42
62800;BME280;48842;51.046;13.796;2024-02-21T09:29:08;100697.16;;;12.52;50.86
62800;BME280;48842;51.046;13.796;2024-02-21T09:31:33;100692.78;;;12.53;50.85
62800;BME280;48842;51.046;13.796;2024-02-21T09:33:58;100693.66;;;12.53;50.30
62800;BME280;48842;51.046;13.796;2024-02-21T09:36:23;100694.53;;;12.54;50.51
62800;BME280;48842;51.046;13.796;2024-02-21T09:38:49;100705.03;;;12.48;50.94
62800;BME280;48842;51.046;13.796;2024-02-21T09:41:16;100705.91;;;12.48;50.46
62800;BME280;48842;51.046;13.796;2024-02-21T09:43:44;100706.78;;;12.46;50.76
62800;BME280;48842;51.046;13.796;2024-02-21T09:46:16;100718.16;;;12.40;50.49
62800;BME280;48842;51.046;13.796;2024-02-21T09:51:36;100706.78;;;12.46;51.24
62800;BME280;48842;51.046;13.796;2024-02-21T09:54:03;100708.56;;;12.51;50.68
62800;BME280;48842;51.046;13.796;2024-02-21T09:56:28;100702.41;;;12.51;51.24
62800;BME280;48842;51.046;13.796;2024-02-21T09:58:54;100706.78;;;12.52;51.21
62800;BME280;48842;51.046;13.796;2024-02-21T10:01:19;100697.16;;;12.51;50.68
62800;BME280;48842;51.046;13.796;2024-02-21T10:03:44;100700.69;;;12.53;50.84
62800;BME280;48842;51.046;13.796;2024-02-21T10:06:09;100698.03;;;12.56;50.56
62800;BME280;48842;51.046;13.796;2024-02-21T10:08:35;100695.41;;;12.61;50.46
62800;BME280;48842;51.046;13.796;2024-02-21T10:11:00;100696.28;;;12.63;50.89
62800;BME280;48842;51.046;13.796;2024-02-21T10:13:28;100690.16;;;12.64;51.20
62800;BME280;48842;51.046;13.796;2024-02-21T10:16:07;100698.06;;;12.68;50.57
62800;BME280;48842;51.046;13.796;2024-02-21T10:18:35;100701.53;;;12.67;50.74
62800;BME280;48842;51.046;13.796;2024-02-21T10:21:04;100695.41;;;12.62;50.71
62800;BME280;48842;51.046;13.796;2024-02-21T10:23:41;100699.81;;;12.63;50.68
62800;BME280;48842;51.046;13.796;2024-02-21T10:26:07;100687.53;;;12.65;50.80
62800;BME280;48842;51.046;13.796;2024-02-21T10:28:32;100689.28;;;12.66;50.44
62800;BME280;48842;51.046;13.796;2024-02-21T10:30:57;100694.56;;;12.72;51.05
62800;BME280;48842;51.046;13.796;2024-02-21T10:33:23;100690.19;;;12.78;50.63
62800;BME280;48842;51.046;13.796;2024-02-21T10:35:50;100691.91;;;12.82;50.35
62800;BME280;48842;51.046;13.796;2024-02-21T10:38:16;100696.31;;;12.86;50.33
62800;BME280;48842;51.046;13.796;2024-02-21T10:40:41;100690.19;;;12.90;50.50
62800;BME280;48842;51.046;13.796;2024-02-21T10:43:12;100677.88;;;12.95;50.51
62800;BME280;48842;51.046;13.796;2024-02-21T10:45:38;100684.91;;;12.91;50.41
62800;BME280;48842;51.046;13.796;2024-02-21T10:48:14;100671.78;;;12.87;50.00
62800;BME280;48842;51.046;13.796;2024-02-21T10:50:47;100667.38;;;12.89;49.86
62800;BME280;48842;51.046;13.796;2024-02-21T10:56:26;100663.00;;;12.92;49.29
62800;BME280;48842;51.046;13.796;2024-02-21T10:58:53;100666.50;;;12.96;49.55
62800;BME280;48842;51.046;13.796;2024-02-21T11:01:20;100663.88;;;12.93;49.75
62800;BME280;48842;51.046;13.796;2024-02-21T11:03:48;100667.38;;;12.89;49.80
62800;BME280;48842;51.046;13.796;2024-02-21T11:06:15;100658.63;;;12.81;49.08
62800;BME280;48842;51.046;13.796;2024-02-21T11:08:41;100654.25;;;12.80;49.63
62800;BME280;48842;51.046;13.796;2024-02-21T11:11:06;100653.38;;;12.79;49.18
62800;BME280;48842;51.046;13.796;2024-02-21T11:13:35;100653.38;;;12.79;49.63
62800;BME280;48842;51.046;13.796;2024-02-21T11:16:10;100654.25;;;12.77;49.44
62800;BME280;48842;51.046;13.796;2024-02-21T11:18:37;100644.59;;;12.72;49.46
62800;BME280;48842;51.046;13.796;2024-02-21T11:21:02;100641.13;;;12.75;49.90
62800;BME280;48842;51.046;13.796;2024-02-21T11:23:30;100642.84;;;12.74;49.75
62800;BME280;48842;51.046;13.796;2024-02-21T11:28:31;100629.72;;;12.70;49.94
62800;BME280;48842;51.046;13.796;2024-02-21T11:31:07;100620.09;;;12.72;49.87
62800;BME280;48842;51.046;13.796;2024-02-21T11:33:34;100612.19;;;12.73;49.79
62800;BME280;48842;51.046;13.796;2024-02-21T11:35:59;100610.41;;;12.82;49.72
62800;BME280;48842;51.046;13.796;2024-02-21T11:38:24;100613.94;;;12.90;50.07
62800;BME280;48842;51.046;13.796;2024-02-21T11:40:50;100599.91;;;12.94;49.86
62800;BME280;48842;51.046;13.796;2024-02-21T11:43:15;100596.41;;;13.00;49.48
62800;BME280;48842;51.046;13.796;2024-02-21T11:45:41;100596.38;;;13.07;49.48
62800;BME280;48842;51.046;13.796;2024-02-21T11:48:07;100589.31;;;13.13;49.69
62800;BME280;48842;51.046;13.796;2024-02-21T11:50:34;100584.94;;;13.16;49.13
62800;BME280;48842;51.046;13.796;2024-02-21T11:53:00;100576.19;;;13.17;49.11
62800;BME280;48842;51.046;13.796;2024-02-21T11:55:25;100578.81;;;13.13;49.32
62800;BME280;48842;51.046;13.796;2024-02-21T11:57:51;100568.28;;;13.09;49.33
62800;BME280;48842;51.046;13.796;2024-02-21T12:00:17;100573.53;;;13.13;49.80
62800;BME280;48842;51.046;13.796;2024-02-21T12:02:45;100572.66;;;13.18;49.26
62800;BME280;48842;51.046;13.796;2024-02-21T12:05:11;100554.25;;;13.14;49.38
62800;BME280;48842;51.046;13.796;2024-02-21T12:07:36;100551.63;;;13.17;49.11
62800;BME280;48842;51.046;13.796;2024-02-21T12:10:07;100546.34;;;13.21;49.60
62800;BME280;48842;51.046;13.796;2024-02-21T12:12:34;100541.94;;;13.31;49.16
62800;BME280;48842;51.046;13.796;2024-02-21T12:15:01;100534.03;;;13.30;49.52
62800;BME280;48842;51.046;13.796;2024-02-21T12:17:27;100525.28;;;13.27;48.93
62800;BME280;48842;51.046;13.796;2024-02-21T12:19:52;100515.63;;;13.36;49.50
62800;BME280;48842;51.046;13.796;2024-02-21T12:22:22;100520.84;;;13.50;48.91
62800;BME280;48842;51.046;13.796;2024-02-21T12:24:47;100512.84;;;13.62;48.85
62800;BME280;48842;51.046;13.796;2024-02-21T12:27:13;100505.78;;;13.72;48.85
62800;BME280;48842;51.046;13.796;2024-02-21T12:29:38;100499.56;;;13.82;48.69
62800;BME280;48842;51.046;13.796;2024-02-21T12:32:05;100493.34;;;13.94;48.31
62800;BME280;48842;51.046;13.796;2024-02-21T12:34:30;100482.69;;;14.09;48.02
62800;BME280;48842;51.046;13.796;2024-02-21T12:36:59;100483.41;;;14.30;47.85
62800;BME280;48842;51.046;13.796;2024-02-21T12:39:24;100468.38;;;14.40;47.21
62800;BME280;48842;51.046;13.796;2024-02-21T12:41:52;100465.69;;;14.44;46.53